x

Long Key, Fl (lonf1) Weather Station

5:00pm - Wed 23rd Jul 2014 All times are CDT. -4 hours from GMT.

  • Wind
  • Sea Temp 89°f
  • Air Temp 88°f
  • Sea Pressure 1018mb
  • Long Key, Fl
  • Long Key, Fl

More Historic Weather Station data

Upgrade to MSW Pro to gain access to the past 30 days of data for over 8000 Wavebouys and Weather Stations around the globe.

Join Pro

Comparision Forecast

View Surf forecast
   
Wed 07/23 5:00pm  -  1 mph 1018mb 89f 88f
4:00pm 6 7 mph 1018.3mb 89f 84f
3:00pm 8
mph
1018.8mb 88f 82f
2:00pm 18 22 mph 1019.6mb 88f 82f
1:00pm 13 14 mph 1019.3mb 88f 86f
12:00pm 13 14 mph 1019.4mb 88f 86f
11:00am 11 14 mph 1019.5mb 87f 85f
10:00am 11 13 mph 1019.2mb 87f 84f
9:00am 11 14 mph 1019.2mb 87f 85f
8:00am 8
mph
1018.8mb 87f 85f
7:00am 8 9 mph 1018.1mb 87f 84f
6:00am 10
mph
1017.8mb 87f 84f
5:00am 9 11 mph 1017.5mb 87f 84f
4:00am 8 10 mph 1017.5mb 87f 84f
3:00am 9 10 mph 1017.8mb 88f 84f
2:00am 7 8 mph 1018.4mb 88f 84f
1:00am 8 9 mph 1018.9mb 88f 84f
12:00am 7 8 mph 1019.5mb 88f 84f
Tue 07/22 11:00pm 6 7 mph 1019.4mb 88f 84f
10:00pm 5
mph
1018.7mb 88f 84f
9:00pm  -  mph 1018.5mb 88f 83f
8:00pm 1 2 mph 1018.5mb 88f 84f
7:00pm 3
mph
1017.9mb 89f 83f
6:00pm 3 5 mph 1018mb 89f 83f
5:00pm 5
mph
1017.8mb 89f 83f
4:00pm 5 7 mph 1017.9mb 88f 83f
3:00pm  -  1 mph 1018.4mb 88f 83f
2:00pm 1
mph
1018.4mb 87f 82f
1:00pm 3
mph
1019.3mb 87f 83f
12:00pm 8 9 mph 1019.2mb 87f 77f
11:00am 9 11 mph 1019.5mb 87f 76f
10:00am 17 21 mph 1019mb 88f 80f
9:00am 2 6 mph 1018.2mb 88f 85f
8:00am 3 5 mph 1017.7mb 88f 84f
7:00am 8 10 mph 1017.1mb 88f 84f
6:00am 9 11 mph 1016.6mb 88f 84f
5:00am 11 14 mph 1015.9mb 88f 83f
4:00am 10 13 mph 1016.2mb 88f 84f
3:00am 7 8 mph 1016.7mb 88f 82f
2:00am 9 10 mph 1017.3mb 89f 80f
1:00am 17 18 mph 1018mb 89f 78f
12:00am 6 7 mph 1018.5mb 89f 81f
Mon 07/21 11:00pm 3 5 mph 1018.6mb 89f 85f
10:00pm 2 3 mph 1018.3mb 89f 85f
9:00pm  -  mph 1017.7mb 89f 84f
8:00pm 2 3 mph 1017.5mb 90f 84f
7:00pm 3 5 mph 1017.2mb 90f 84f
6:00pm 5 7 mph 1017.6mb 90f 84f
5:00pm  -  1 mph 1017.2mb 90f 84f
4:00pm 13 14 mph 1017.3mb 90f 83f
3:00pm 5 6 mph 1017.6mb 90f 85f
2:00pm 8 9 mph 1018.4mb 89f 84f
1:00pm 11 13 mph 1018.2mb 89f 83f
12:00pm 15 17 mph 1018.5mb 89f 80f
11:00am 10 13 mph 1018.6mb 89f 85f
10:00am 10 13 mph 1018.3mb 89f 86f
9:00am 11 13 mph 1017.9mb 89f 85f
8:00am 3 5 mph 1017.6mb 89f 84f
7:00am 5 6 mph 1017.1mb 90f 83f
6:00am 3
mph
1016.8mb 90f 83f
5:00am 3 5 mph 1016.5mb 90f 83f
4:00am  -  1 mph 1016.6mb 90f 82f
3:00am 1 2 mph 1016.9mb 90f 82f
2:00am 5 6 mph 1017.9mb 90f 81f
1:00am 8 10 mph 1018.3mb 90f 80f
12:00am 8 9 mph 1018.9mb 91f 75f
Sun 07/20 11:00pm 18 23 mph 1018.8mb 91f 83f
10:00pm 2 3 mph 1018.5mb 92f 85f
9:00pm 6 7 mph 1017.7mb 92f 85f
8:00pm 3 5 mph 1017.3mb 92f 86f
7:00pm 6 7 mph 1016.7mb 92f 86f
6:00pm 2 3 mph 1016.3mb 92f 87f
5:00pm 3 5 mph 1016.4mb 92f 88f
4:00pm 2 3 mph 1016.9mb 92f 88f
3:00pm 3
mph
1017.6mb 91f 86f
2:00pm 1 2 mph 1018.4mb 91f 87f
1:00pm 2 5 mph 1018.7mb 90f 86f
12:00pm 6
mph
1018.6mb 90f 85f
11:00am 3 5 mph 1018.8mb 89f 87f
10:00am 5 7 mph 1018.5mb 89f 85f
9:00am 5 6 mph 1018.4mb 89f 86f
8:00am 6 7 mph 1018.1mb 89f 85f
7:00am 6 7 mph 1017.7mb 89f 84f
6:00am 9 10 mph 1017.3mb 89f 85f
5:00am 8 9 mph 1017mb 89f 84f
4:00am 10 11 mph 1016.7mb 89f 84f
3:00am 11 13 mph 1016.9mb 90f 84f
2:00am 8 10 mph 1017.8mb 90f 85f
1:00am 9 11 mph 1018.8mb 90f 85f
12:00am 8 9 mph 1019.4mb 90f 85f